Aviation Digital Data Service (ADDS)

Output produced by METARs form (0704 UTC 19 February 2019)
found at http://www.aviationweather.gov/metar/data/
 
METAR text: WBKL 190500Z 03006KT 330V080 9999 FEW012 SCT140 BKN300 31/25 Q1012
Conditions at: WBKL (LABUAN (AFB) , MY) observed 0500 UTC 19 February 2019
Temperature: 31.0°C (88°F)
Dewpoint: 25.0°C (77°F) [RH = 71%]
Pressure (altimeter): 29.88 inches Hg (1012.0 mb)
Winds: from the NNE (30 degrees) at 7 MPH (6 knots; 3.1 m/s)
Visibility: 6 or more miles (10+ km)
Ceiling: 30000 feet AGL
Clouds: few clouds at 1200 feet AGL
scattered clouds at 14000 feet AGL
broken clouds at 30000 feet AGL
Weather: no significant weather observed at this time

METAR text: WBKL 190400Z 03004KT 350V100 9999 FEW012 SCT140 BKN300 30/25 Q1013
Conditions at: WBKL (LABUAN (AFB) , MY) observed 0400 UTC 19 February 2019
Temperature: 30.0°C (86°F)
Dewpoint: 25.0°C (77°F) [RH = 75%]
Pressure (altimeter): 29.91 inches Hg (1013.0 mb)
Winds: from the NNE (30 degrees) at 5 MPH (4 knots; 2.1 m/s)
Visibility: 6 or more miles (10+ km)
Ceiling: 30000 feet AGL
Clouds: few clouds at 1200 feet AGL
scattered clouds at 14000 feet AGL
broken clouds at 30000 feet AGL
Weather: no significant weather observed at this time

METAR text: WBKL 190300Z 04004KT 350V100 9999 FEW012 BKN130 BKN300 28/25 Q1014
Conditions at: WBKL (LABUAN (AFB) , MY) observed 0300 UTC 19 February 2019
Temperature: 28.0°C (82°F)
Dewpoint: 25.0°C (77°F) [RH = 84%]
Pressure (altimeter): 29.94 inches Hg (1014.0 mb)
Winds: from the NE (40 degrees) at 5 MPH (4 knots; 2.1 m/s)
Visibility: 6 or more miles (10+ km)
Ceiling: 13000 feet AGL
Clouds: few clouds at 1200 feet AGL
broken clouds at 13000 feet AGL
broken clouds at 30000 feet AGL
Weather: no significant weather observed at this time

METAR text: WBKL 190200Z 04005KT 010V080 9999 FEW012 BKN130 BKN300 28/24 Q1014
Conditions at: WBKL (LABUAN (AFB) , MY) observed 0200 UTC 19 February 2019
Temperature: 28.0°C (82°F)
Dewpoint: 24.0°C (75°F) [RH = 79%]
Pressure (altimeter): 29.94 inches Hg (1014.0 mb)
Winds: from the NE (40 degrees) at 6 MPH (5 knots; 2.6 m/s)
Visibility: 6 or more miles (10+ km)
Ceiling: 13000 feet AGL
Clouds: few clouds at 1200 feet AGL
broken clouds at 13000 feet AGL
broken clouds at 30000 feet AGL
Weather: no significant weather observed at this time

METAR text: WBKL 190100Z 05004KT 010V090 9999 FEW012 BKN130 BKN300 27/24 Q1014
Conditions at: WBKL (LABUAN (AFB) , MY) observed 0100 UTC 19 February 2019
Temperature: 27.0°C (81°F)
Dewpoint: 24.0°C (75°F) [RH = 84%]
Pressure (altimeter): 29.94 inches Hg (1014.0 mb)
Winds: from the NE (50 degrees) at 5 MPH (4 knots; 2.1 m/s)
Visibility: 6 or more miles (10+ km)
Ceiling: 13000 feet AGL
Clouds: few clouds at 1200 feet AGL
broken clouds at 13000 feet AGL
broken clouds at 30000 feet AGL
Weather: no significant weather observed at this time

METAR text: WBKL 190000Z 08005KT 030V110 9999 FEW012 BKN130 BKN300 27/24 Q1013
Conditions at: WBKL (LABUAN (AFB) , MY) observed 0000 UTC 19 February 2019
Temperature: 27.0°C (81°F)
Dewpoint: 24.0°C (75°F) [RH = 84%]
Pressure (altimeter): 29.91 inches Hg (1013.0 mb)
Winds: from the E (80 degrees) at 6 MPH (5 knots; 2.6 m/s)
Visibility: 6 or more miles (10+ km)
Ceiling: 13000 feet AGL
Clouds: few clouds at 1200 feet AGL
broken clouds at 13000 feet AGL
broken clouds at 30000 feet AGL
Weather: no significant weather observed at this time

METAR text: WBKL 182300Z 08003KT 9999 FEW012 BKN130 BKN300 26/24 Q1013
Conditions at: WBKL (LABUAN (AFB) , MY) observed 2300 UTC 18 February 2019
Temperature: 26.0°C (79°F)
Dewpoint: 24.0°C (75°F) [RH = 89%]
Pressure (altimeter): 29.91 inches Hg (1013.0 mb)
Winds: from the E (80 degrees) at 3 MPH (3 knots; 1.5 m/s)
Visibility: 6 or more miles (10+ km)
Ceiling: 13000 feet AGL
Clouds: few clouds at 1200 feet AGL
broken clouds at 13000 feet AGL
broken clouds at 30000 feet AGL
Weather: no significant weather observed at this time

METAR text: WBKL 182200Z 07003KT 9999 FEW012 BKN130 BKN300 26/23 Q1012
Conditions at: WBKL (LABUAN (AFB) , MY) observed 2200 UTC 18 February 2019
Temperature: 26.0°C (79°F)
Dewpoint: 23.0°C (73°F) [RH = 84%]
Pressure (altimeter): 29.88 inches Hg (1012.0 mb)
Winds: from the ENE (70 degrees) at 3 MPH (3 knots; 1.5 m/s)
Visibility: 6 or more miles (10+ km)
Ceiling: 13000 feet AGL
Clouds: few clouds at 1200 feet AGL
broken clouds at 13000 feet AGL
broken clouds at 30000 feet AGL
Weather: no significant weather observed at this time

METAR text: WBKL 182100Z VRB02KT 9999 FEW012 BKN130 BKN300 25/23 Q1012
Conditions at: WBKL (LABUAN (AFB) , MY) observed 2100 UTC 18 February 2019
Temperature: 25.0°C (77°F)
Dewpoint: 23.0°C (73°F) [RH = 89%]
Pressure (altimeter): 29.88 inches Hg (1012.0 mb)
Winds: variable direction winds at 2 MPH (2 knots; 1.0 m/s)
Visibility: 6 or more miles (10+ km)
Ceiling: 13000 feet AGL
Clouds: few clouds at 1200 feet AGL
broken clouds at 13000 feet AGL
broken clouds at 30000 feet AGL
Weather: no significant weather observed at this time

METAR text: WBKL 182000Z VRB02KT 9999 FEW012 BKN130 BKN300 26/23 Q1012
Conditions at: WBKL (LABUAN (AFB) , MY) observed 2000 UTC 18 February 2019
Temperature: 26.0°C (79°F)
Dewpoint: 23.0°C (73°F) [RH = 84%]
Pressure (altimeter): 29.88 inches Hg (1012.0 mb)
Winds: variable direction winds at 2 MPH (2 knots; 1.0 m/s)
Visibility: 6 or more miles (10+ km)
Ceiling: 13000 feet AGL
Clouds: few clouds at 1200 feet AGL
broken clouds at 13000 feet AGL
broken clouds at 30000 feet AGL
Weather: no significant weather observed at this time

METAR text: WBKL 181900Z 08004KT 050V120 9999 FEW012 BKN130 BKN300 25/23 Q1012
Conditions at: WBKL (LABUAN (AFB) , MY) observed 1900 UTC 18 February 2019
Temperature: 25.0°C (77°F)
Dewpoint: 23.0°C (73°F) [RH = 89%]
Pressure (altimeter): 29.88 inches Hg (1012.0 mb)
Winds: from the E (80 degrees) at 5 MPH (4 knots; 2.1 m/s)
Visibility: 6 or more miles (10+ km)
Ceiling: 13000 feet AGL
Clouds: few clouds at 1200 feet AGL
broken clouds at 13000 feet AGL
broken clouds at 30000 feet AGL
Weather: no significant weather observed at this time

METAR text: WBKL 181800Z VRB03KT 9999 FEW012 BKN130 BKN300 25/24 Q1013
Conditions at: WBKL (LABUAN (AFB) , MY) observed 1800 UTC 18 February 2019
Temperature: 25.0°C (77°F)
Dewpoint: 24.0°C (75°F) [RH = 94%]
Pressure (altimeter): 29.91 inches Hg (1013.0 mb)
Winds: variable direction winds at 3 MPH (3 knots; 1.5 m/s)
Visibility: 6 or more miles (10+ km)
Ceiling: 13000 feet AGL
Clouds: few clouds at 1200 feet AGL
broken clouds at 13000 feet AGL
broken clouds at 30000 feet AGL
Weather: no significant weather observed at this time

METAR text: WBKL 181700Z VRB02KT 9999 FEW012 BKN130 BKN300 25/24 Q1013
Conditions at: WBKL (LABUAN (AFB) , MY) observed 1700 UTC 18 February 2019
Temperature: 25.0°C (77°F)
Dewpoint: 24.0°C (75°F) [RH = 94%]
Pressure (altimeter): 29.91 inches Hg (1013.0 mb)
Winds: variable direction winds at 2 MPH (2 knots; 1.0 m/s)
Visibility: 6 or more miles (10+ km)
Ceiling: 13000 feet AGL
Clouds: few clouds at 1200 feet AGL
broken clouds at 13000 feet AGL
broken clouds at 30000 feet AGL
Weather: no significant weather observed at this time

METAR text: WBKL 181600Z 07004KT 9999 FEW012 BKN130 BKN290 25/24 Q1014
Conditions at: WBKL (LABUAN (AFB) , MY) observed 1600 UTC 18 February 2019
Temperature: 25.0°C (77°F)
Dewpoint: 24.0°C (75°F) [RH = 94%]
Pressure (altimeter): 29.94 inches Hg (1014.0 mb)
Winds: from the ENE (70 degrees) at 5 MPH (4 knots; 2.1 m/s)
Visibility: 6 or more miles (10+ km)
Ceiling: 13000 feet AGL
Clouds: few clouds at 1200 feet AGL
broken clouds at 13000 feet AGL
broken clouds at 29000 feet AGL
Weather: no significant weather observed at this time

METAR text: WBKL 181500Z VRB03KT 9999 FEW012 FEW014CB BKN130 BKN290 25/24 Q1014 RETS
Conditions at: WBKL (LABUAN (AFB) , MY) observed 1500 UTC 18 February 2019
Temperature: 25.0°C (77°F)
Dewpoint: 24.0°C (75°F) [RH = 94%]
Pressure (altimeter): 29.94 inches Hg (1014.0 mb)
Winds: variable direction winds at 3 MPH (3 knots; 1.5 m/s)
Visibility: 6 or more miles (10+ km)
Ceiling: 13000 feet AGL
Clouds: few clouds at 1200 feet AGL
few clouds at 1400 feet AGL
broken clouds at 13000 feet AGL
broken clouds at 29000 feet AGL
Weather: no significant weather observed at this time

METAR text: WBKL 181400Z 07003KT 030V120 9999 TS FEW012 FEW014CB BKN130 BKN290 25/24 Q1014
Conditions at: WBKL (LABUAN (AFB) , MY) observed 1400 UTC 18 February 2019
Temperature: 25.0°C (77°F)
Dewpoint: 24.0°C (75°F) [RH = 94%]
Pressure (altimeter): 29.94 inches Hg (1014.0 mb)
Winds: from the ENE (70 degrees) at 3 MPH (3 knots; 1.5 m/s)
Visibility: 6 or more miles (10+ km)
Ceiling: 13000 feet AGL
Clouds: few clouds at 1200 feet AGL
few clouds at 1400 feet AGL
broken clouds at 13000 feet AGL
broken clouds at 29000 feet AGL
Weather: TS  (thunderstorm)

METAR text: WBKL 181300Z 06006KT 010V110 8000 -TSRA FEW012 FEW013CB SCT040 BKN130 25/24 Q1014
Conditions at: WBKL (LABUAN (AFB) , MY) observed 1300 UTC 18 February 2019
Temperature: 25.0°C (77°F)
Dewpoint: 24.0°C (75°F) [RH = 94%]
Pressure (altimeter): 29.94 inches Hg (1014.0 mb)
Winds: from the ENE (60 degrees) at 7 MPH (6 knots; 3.1 m/s)
Visibility: 5 miles ( 8 km)
Ceiling: 13000 feet AGL
Clouds: few clouds at 1200 feet AGL
few clouds at 1300 feet AGL
scattered clouds at 4000 feet AGL
broken clouds at 13000 feet AGL
Weather: -TSRA  (light rain associated with thunderstorm(s))

METAR text: WBKL 181200Z 08003KT 060V120 3000 TSRA SCT012 FEW013CB SCT040 OVC280 26/25 Q1013
Conditions at: WBKL (LABUAN (AFB) , MY) observed 1200 UTC 18 February 2019
Temperature: 26.0°C (79°F)
Dewpoint: 25.0°C (77°F) [RH = 94%]
Pressure (altimeter): 29.91 inches Hg (1013.0 mb)
Winds: from the E (80 degrees) at 3 MPH (3 knots; 1.5 m/s)
Visibility: 1.86 miles (2.99 km)
Ceiling: 28000 feet AGL
Clouds: scattered clouds at 1200 feet AGL
few clouds at 1300 feet AGL
scattered clouds at 4000 feet AGL
overcast cloud deck at 28000 feet AGL
Weather: TSRA  (rain associated with thunderstorm(s))

METAR text: WBKL 181100Z VRB01KT 9999 TS SCT012 FEW013CB SCT140 BKN290 27/25 Q1012
Conditions at: WBKL (LABUAN (AFB) , MY) observed 1100 UTC 18 February 2019
Temperature: 27.0°C (81°F)
Dewpoint: 25.0°C (77°F) [RH = 89%]
Pressure (altimeter): 29.88 inches Hg (1012.0 mb)
Winds: variable direction winds at 1 MPH (1 knots; 0.5 m/s)
Visibility: 6 or more miles (10+ km)
Ceiling: 29000 feet AGL
Clouds: scattered clouds at 1200 feet AGL
few clouds at 1300 feet AGL
scattered clouds at 14000 feet AGL
broken clouds at 29000 feet AGL
Weather: TS  (thunderstorm)

METAR text: WBKL 181000Z VRB02KT 9999 TS FEW013 FEW014CB SCT140 BKN290 28/25 Q1012
Conditions at: WBKL (LABUAN (AFB) , MY) observed 1000 UTC 18 February 2019
Temperature: 28.0°C (82°F)
Dewpoint: 25.0°C (77°F) [RH = 84%]
Pressure (altimeter): 29.88 inches Hg (1012.0 mb)
Winds: variable direction winds at 2 MPH (2 knots; 1.0 m/s)
Visibility: 6 or more miles (10+ km)
Ceiling: 29000 feet AGL
Clouds: few clouds at 1300 feet AGL
few clouds at 1400 feet AGL
scattered clouds at 14000 feet AGL
broken clouds at 29000 feet AGL
Weather: TS  (thunderstorm)

METAR text: WBKL 180900Z 27004KT 210V320 9999 FEW013 SCT140 BKN290 29/25 Q1011
Conditions at: WBKL (LABUAN (AFB) , MY) observed 0900 UTC 18 February 2019
Temperature: 29.0°C (84°F)
Dewpoint: 25.0°C (77°F) [RH = 79%]
Pressure (altimeter): 29.85 inches Hg (1011.0 mb)
Winds: from the W (270 degrees) at 5 MPH (4 knots; 2.1 m/s)
Visibility: 6 or more miles (10+ km)
Ceiling: 29000 feet AGL
Clouds: few clouds at 1300 feet AGL
scattered clouds at 14000 feet AGL
broken clouds at 29000 feet AGL
Weather: no significant weather observed at this time

METAR text: WBKL 180800Z VRB03KT 9999 FEW013 SCT140 BKN290 30/25 Q1011
Conditions at: WBKL (LABUAN (AFB) , MY) observed 0800 UTC 18 February 2019
Temperature: 30.0°C (86°F)
Dewpoint: 25.0°C (77°F) [RH = 75%]
Pressure (altimeter): 29.85 inches Hg (1011.0 mb)
Winds: variable direction winds at 3 MPH (3 knots; 1.5 m/s)
Visibility: 6 or more miles (10+ km)
Ceiling: 29000 feet AGL
Clouds: few clouds at 1300 feet AGL
scattered clouds at 14000 feet AGL
broken clouds at 29000 feet AGL
Weather: no significant weather observed at this time

METAR text: WBKL 180700Z VRB04KT 9999 FEW013 SCT140 BKN290 29/25 Q1011
Conditions at: WBKL (LABUAN (AFB) , MY) observed 0700 UTC 18 February 2019
Temperature: 29.0°C (84°F)
Dewpoint: 25.0°C (77°F) [RH = 79%]
Pressure (altimeter): 29.85 inches Hg (1011.0 mb)
Winds: variable direction winds at 5 MPH (4 knots; 2.1 m/s)
Visibility: 6 or more miles (10+ km)
Ceiling: 29000 feet AGL
Clouds: few clouds at 1300 feet AGL
scattered clouds at 14000 feet AGL
broken clouds at 29000 feet AGL
Weather: no significant weather observed at this time

METAR text: WBKL 180600Z 00000KT 9999 FEW013 BKN140 BKN290 30/24 Q1012
Conditions at: WBKL (LABUAN (AFB) , MY) observed 0600 UTC 18 February 2019
Temperature: 30.0°C (86°F)
Dewpoint: 24.0°C (75°F) [RH = 70%]
Pressure (altimeter): 29.88 inches Hg (1012.0 mb)
Winds: calm
Visibility: 6 or more miles (10+ km)
Ceiling: 14000 feet AGL
Clouds: few clouds at 1300 feet AGL
broken clouds at 14000 feet AGL
broken clouds at 29000 feet AGL
Weather: no significant weather observed at this time

METAR text: WBKL 180500Z VRB02KT 9999 FEW013 BKN140 BKN290 29/25 Q1013
Conditions at: WBKL (LABUAN (AFB) , MY) observed 0500 UTC 18 February 2019
Temperature: 29.0°C (84°F)
Dewpoint: 25.0°C (77°F) [RH = 79%]
Pressure (altimeter): 29.91 inches Hg (1013.0 mb)
Winds: variable direction winds at 2 MPH (2 knots; 1.0 m/s)
Visibility: 6 or more miles (10+ km)
Ceiling: 14000 feet AGL
Clouds: few clouds at 1300 feet AGL
broken clouds at 14000 feet AGL
broken clouds at 29000 feet AGL
Weather: no significant weather observed at this time

METAR text: WBKL 180400Z 17004KT 100V260 9999 FEW013 BKN140 BKN290 29/24 Q1014
Conditions at: WBKL (LABUAN (AFB) , MY) observed 0400 UTC 18 February 2019
Temperature: 29.0°C (84°F)
Dewpoint: 24.0°C (75°F) [RH = 74%]
Pressure (altimeter): 29.94 inches Hg (1014.0 mb)
Winds: from the S (170 degrees) at 5 MPH (4 knots; 2.1 m/s)
Visibility: 6 or more miles (10+ km)
Ceiling: 14000 feet AGL
Clouds: few clouds at 1300 feet AGL
broken clouds at 14000 feet AGL
broken clouds at 29000 feet AGL
Weather: no significant weather observed at this time

METAR text: WBKL 180300Z 16003KT 100V240 9999 FEW013 BKN140 BKN290 28/24 Q1015
Conditions at: WBKL (LABUAN (AFB) , MY) observed 0300 UTC 18 February 2019
Temperature: 28.0°C (82°F)
Dewpoint: 24.0°C (75°F) [RH = 79%]
Pressure (altimeter): 29.97 inches Hg (1015.0 mb)
Winds: from the SSE (160 degrees) at 3 MPH (3 knots; 1.5 m/s)
Visibility: 6 or more miles (10+ km)
Ceiling: 14000 feet AGL
Clouds: few clouds at 1300 feet AGL
broken clouds at 14000 feet AGL
broken clouds at 29000 feet AGL
Weather: no significant weather observed at this time

METAR text: WBKL 180200Z VRB03KT 9999 FEW013 BKN140 BKN280 28/24 Q1015
Conditions at: WBKL (LABUAN (AFB) , MY) observed 0200 UTC 18 February 2019
Temperature: 28.0°C (82°F)
Dewpoint: 24.0°C (75°F) [RH = 79%]
Pressure (altimeter): 29.97 inches Hg (1015.0 mb)
Winds: variable direction winds at 3 MPH (3 knots; 1.5 m/s)
Visibility: 6 or more miles (10+ km)
Ceiling: 14000 feet AGL
Clouds: few clouds at 1300 feet AGL
broken clouds at 14000 feet AGL
broken clouds at 28000 feet AGL
Weather: no significant weather observed at this time

METAR text: WBKL 180100Z VRB02KT 9999 FEW013 BKN140 BKN290 27/24 Q1014
Conditions at: WBKL (LABUAN (AFB) , MY) observed 0100 UTC 18 February 2019
Temperature: 27.0°C (81°F)
Dewpoint: 24.0°C (75°F) [RH = 84%]
Pressure (altimeter): 29.94 inches Hg (1014.0 mb)
Winds: variable direction winds at 2 MPH (2 knots; 1.0 m/s)
Visibility: 6 or more miles (10+ km)
Ceiling: 14000 feet AGL
Clouds: few clouds at 1300 feet AGL
broken clouds at 14000 feet AGL
broken clouds at 29000 feet AGL
Weather: no significant weather observed at this time

METAR text: WBKL 180000Z VRB02KT 9999 FEW013 BKN140 BKN290 26/24 Q1013
Conditions at: WBKL (LABUAN (AFB) , MY) observed 0000 UTC 18 February 2019
Temperature: 26.0°C (79°F)
Dewpoint: 24.0°C (75°F) [RH = 89%]
Pressure (altimeter): 29.91 inches Hg (1013.0 mb)
Winds: variable direction winds at 2 MPH (2 knots; 1.0 m/s)
Visibility: 6 or more miles (10+ km)
Ceiling: 14000 feet AGL
Clouds: few clouds at 1300 feet AGL
broken clouds at 14000 feet AGL
broken clouds at 29000 feet AGL
Weather: no significant weather observed at this time

METAR text: WBKL 172300Z 00000KT 9999 FEW013 SCT140 BKN300 26/24 Q1012
Conditions at: WBKL (LABUAN (AFB) , MY) observed 2300 UTC 17 February 2019
Temperature: 26.0°C (79°F)
Dewpoint: 24.0°C (75°F) [RH = 89%]
Pressure (altimeter): 29.88 inches Hg (1012.0 mb)
Winds: calm
Visibility: 6 or more miles (10+ km)
Ceiling: 30000 feet AGL
Clouds: few clouds at 1300 feet AGL
scattered clouds at 14000 feet AGL
broken clouds at 30000 feet AGL
Weather: no significant weather observed at this time

METAR text: WBKL 172200Z VRB01KT 9999 FEW013 BKN300 25/24 Q1012
Conditions at: WBKL (LABUAN (AFB) , MY) observed 2200 UTC 17 February 2019
Temperature: 25.0°C (77°F)
Dewpoint: 24.0°C (75°F) [RH = 94%]
Pressure (altimeter): 29.88 inches Hg (1012.0 mb)
Winds: variable direction winds at 1 MPH (1 knots; 0.5 m/s)
Visibility: 6 or more miles (10+ km)
Ceiling: 30000 feet AGL
Clouds: few clouds at 1300 feet AGL
broken clouds at 30000 feet AGL
Weather: no significant weather observed at this time

METAR text: WBKL 172100Z VRB01KT 9999 FEW013 BKN300 26/25 Q1011
Conditions at: WBKL (LABUAN (AFB) , MY) observed 2100 UTC 17 February 2019
Temperature: 26.0°C (79°F)
Dewpoint: 25.0°C (77°F) [RH = 94%]
Pressure (altimeter): 29.85 inches Hg (1011.0 mb)
Winds: variable direction winds at 1 MPH (1 knots; 0.5 m/s)
Visibility: 6 or more miles (10+ km)
Ceiling: 30000 feet AGL
Clouds: few clouds at 1300 feet AGL
broken clouds at 30000 feet AGL
Weather: no significant weather observed at this time

METAR text: WBKL 172000Z 00000KT 9999 FEW013 BKN300 26/25 Q1011
Conditions at: WBKL (LABUAN (AFB) , MY) observed 2000 UTC 17 February 2019
Temperature: 26.0°C (79°F)
Dewpoint: 25.0°C (77°F) [RH = 94%]
Pressure (altimeter): 29.85 inches Hg (1011.0 mb)
Winds: calm
Visibility: 6 or more miles (10+ km)
Ceiling: 30000 feet AGL
Clouds: few clouds at 1300 feet AGL
broken clouds at 30000 feet AGL
Weather: no significant weather observed at this time

Forecast for: WBKL (LABUAN (AFB) , MY)
Text: TAF WBKL 190500Z 1906/2006 01008KT 9999 FEW012
Forecast period: 0600 UTC 19 February 2019 to 0600 UTC 20 February 2019
Forecast type: FROM: standard forecast or significant change
Winds: from the N (10 degrees) at 9 MPH (8 knots; 4.1 m/s)
Visibility: 6 or more miles 10+ km)
Ceiling: at least 12,000 feet AGL
Clouds: few clouds at 1200 feet AGL
Weather: no significant weather forecast for this period
Text: TEMPO 1910/1914 4000 RA FEW010 FEW014CB SCT040
Forecast period: 1000 to 1400 UTC 19 February 2019
Forecast type: TEMPORARY: The following changes expected for less than half the time period
Visibility: 2.49 miles (4.01 km)
Ceiling: at least 12,000 feet AGL
Clouds: few clouds at 1000 feet AGL
few clouds at 1400 feet AGL
scattered clouds at 4000 feet AGL
Weather: RA  (moderate rain)